createdAt,value
2022-09-04T00:04:18.515Z,13.10
2022-09-04T00:09:32.871Z,13.08
2022-09-04T00:14:38.077Z,13.05
2022-09-04T00:20:02.877Z,13.04
2022-09-04T00:25:08.289Z,12.95
2022-09-04T00:30:12.535Z,12.99
2022-09-04T00:35:19.435Z,13.00
2022-09-04T00:40:31.500Z,13.07
2022-09-04T00:45:36.661Z,13.03
2022-09-04T00:50:45.386Z,12.93
2022-09-04T00:55:57.159Z,12.81
2022-09-04T01:01:00.169Z,12.79
2022-09-04T01:06:33.949Z,12.77
2022-09-04T01:11:46.452Z,12.78
2022-09-04T01:17:09.462Z,12.82
2022-09-04T01:22:41.495Z,12.81
2022-09-04T01:27:59.061Z,12.80
2022-09-04T01:33:17.311Z,12.77
2022-09-04T01:38:41.277Z,12.85
2022-09-04T01:43:44.339Z,12.83
2022-09-04T01:49:27.850Z,12.82
2022-09-04T01:54:51.266Z,12.74
2022-09-04T01:59:59.403Z,12.70
2022-09-04T02:05:32.991Z,12.55
2022-09-04T02:10:38.496Z,12.61
2022-09-04T02:15:42.991Z,12.58
2022-09-04T02:20:51.430Z,12.55
2022-09-04T02:26:01.373Z,12.57
2022-09-04T02:31:24.740Z,12.42
2022-09-04T02:36:36.602Z,12.40
2022-09-04T02:41:51.205Z,12.27
2022-09-04T02:47:16.616Z,12.18
2022-09-04T02:52:37.224Z,12.27
2022-09-04T02:57:55.275Z,12.29
2022-09-04T03:03:11.295Z,12.32
2022-09-04T03:08:22.780Z,12.35
2022-09-04T03:13:52.044Z,12.33
2022-09-04T03:19:16.516Z,12.46
2022-09-04T03:24:56.771Z,12.46
2022-09-04T03:30:09.072Z,12.43
2022-09-04T03:35:23.534Z,12.52
2022-09-04T03:41:00.704Z,12.51
2022-09-04T03:46:33.745Z,12.51
2022-09-04T03:51:57.184Z,12.51
2022-09-04T03:57:03.260Z,12.48
2022-09-04T04:02:08.217Z,12.48
2022-09-04T04:07:25.248Z,12.55
2022-09-04T04:13:01.020Z,12.58
2022-09-04T04:18:21.868Z,12.49
2022-09-04T04:23:29.467Z,12.51
2022-09-04T04:28:45.310Z,12.69
2022-09-04T04:34:14.015Z,12.51
2022-09-04T04:39:30.464Z,12.54
2022-09-04T04:45:17.464Z,12.67
2022-09-04T04:50:29.840Z,12.76
2022-09-04T04:55:56.711Z,12.91
2022-09-04T05:01:23.069Z,13.62
2022-09-04T05:06:42.231Z,14.24
2022-09-04T05:12:11.261Z,14.77
2022-09-04T05:17:25.538Z,15.27
2022-09-04T05:23:03.242Z,15.76
2022-09-04T05:28:21.858Z,16.13
2022-09-04T05:33:47.225Z,16.35
2022-09-04T05:39:26.272Z,16.67
2022-09-04T05:44:37.162Z,16.71
2022-09-04T05:50:00.853Z,16.93
2022-09-04T05:55:11.996Z,17.20
2022-09-04T06:00:17.751Z,17.24
2022-09-04T06:05:35.205Z,17.44
2022-09-04T06:10:47.476Z,17.49
2022-09-04T06:16:18.657Z,17.71
2022-09-04T06:21:23.954Z,18.03
2022-09-04T06:27:04.681Z,18.13
2022-09-04T06:32:29.095Z,18.29
2022-09-04T06:37:48.178Z,18.00
2022-09-04T06:43:09.186Z,17.64
2022-09-04T06:48:17.352Z,17.70
2022-09-04T06:53:37.994Z,17.49
2022-09-04T06:59:11.456Z,17.32
2022-09-04T07:04:35.604Z,17.38
2022-09-04T07:09:42.725Z,17.59
2022-09-04T07:15:06.999Z,17.59
2022-09-04T07:20:31.145Z,17.70
2022-09-04T07:25:41.848Z,17.70
2022-09-04T07:30:50.886Z,18.11
2022-09-04T07:36:03.316Z,17.82
2022-09-04T07:41:17.875Z,18.12
2022-09-04T07:46:47.560Z,18.37
2022-09-04T07:52:03.558Z,18.62
2022-09-04T07:57:18.400Z,18.68
2022-09-04T08:02:51.312Z,18.83
2022-09-04T08:08:15.154Z,19.14
2022-09-04T08:13:25.194Z,19.22
2022-09-04T08:18:53.253Z,19.41
2022-09-04T08:24:14.267Z,19.54
2022-09-04T08:29:16.711Z,19.74
2022-09-04T08:34:37.992Z,19.94
2022-09-04T08:40:01.532Z,19.74
2022-09-04T08:45:43.433Z,20.06
2022-09-04T08:51:05.210Z,20.23
2022-09-04T08:56:20.673Z,20.41
2022-09-04T09:01:41.867Z,20.34
2022-09-04T09:06:56.173Z,20.30
2022-09-04T09:12:10.636Z,20.51
2022-09-04T09:17:18.838Z,20.59
2022-09-04T09:22:59.555Z,20.60
2022-09-04T09:28:20.357Z,20.53
2022-09-04T09:34:11.526Z,20.98
2022-09-04T09:39:34.351Z,21.04
2022-09-04T09:45:14.242Z,21.08
2022-09-04T09:51:02.821Z,21.22
2022-09-04T09:56:35.981Z,21.23
2022-09-04T10:01:52.419Z,21.15
2022-09-04T10:07:20.227Z,21.59
2022-09-04T10:12:46.788Z,21.66
2022-09-04T10:18:08.762Z,21.62
2022-09-04T10:23:20.315Z,21.94
2022-09-04T10:28:30.777Z,21.99
2022-09-04T10:34:12.923Z,22.04
2022-09-04T10:39:44.098Z,21.91
2022-09-04T10:44:58.820Z,22.28
2022-09-04T10:50:11.725Z,22.07
2022-09-04T10:55:19.994Z,22.10
2022-09-04T11:00:40.744Z,21.99
2022-09-04T11:06:25.983Z,22.46
2022-09-04T11:11:59.895Z,22.44
2022-09-04T11:17:05.111Z,22.42
2022-09-04T11:22:45.320Z,23.02
2022-09-04T11:28:21.549Z,23.25
2022-09-04T11:33:50.575Z,22.92
2022-09-04T11:39:21.115Z,23.03
2022-09-04T11:44:45.517Z,23.21
2022-09-04T11:50:09.784Z,23.05
2022-09-04T11:55:25.432Z,23.00
2022-09-04T12:00:59.542Z,23.26
2022-09-04T12:06:35.246Z,23.30
2022-09-04T12:12:11.649Z,23.39
2022-09-04T12:17:15.742Z,23.51
2022-09-04T12:22:52.509Z,23.46
2022-09-04T12:28:27.254Z,23.52
2022-09-04T12:33:45.776Z,23.30
2022-09-04T12:39:18.888Z,23.36
2022-09-04T12:44:43.279Z,23.72
2022-09-04T12:50:33.958Z,23.70
2022-09-04T12:56:03.338Z,23.85
2022-09-04T13:01:17.271Z,23.85
2022-09-04T13:06:40.430Z,23.65
2022-09-04T13:12:07.571Z,23.96
2022-09-04T13:17:10.085Z,23.59
2022-09-04T13:22:24.612Z,23.42
2022-09-04T13:28:04.263Z,23.74
2022-09-04T13:33:40.963Z,23.86
2022-09-04T13:38:46.092Z,23.80
2022-09-04T13:44:26.014Z,23.68
2022-09-04T13:49:33.784Z,23.60
2022-09-04T13:54:45.899Z,23.68
2022-09-04T13:59:50.288Z,23.77
2022-09-04T14:05:18.323Z,23.59
2022-09-04T14:10:25.821Z,23.67
2022-09-04T14:15:28.846Z,24.10
2022-09-04T14:21:01.291Z,23.92
2022-09-04T14:26:04.043Z,23.91
2022-09-04T14:31:21.965Z,23.88
2022-09-04T14:36:26.960Z,23.79
2022-09-04T14:42:04.928Z,23.54
2022-09-04T14:47:30.287Z,23.35
2022-09-04T14:52:40.570Z,23.40
2022-09-04T14:57:48.041Z,23.56
2022-09-04T15:02:50.439Z,23.48
2022-09-04T15:08:01.518Z,23.38
2022-09-04T15:13:27.987Z,23.44
2022-09-04T15:18:37.345Z,23.72
2022-09-04T15:23:55.530Z,23.70
2022-09-04T15:29:03.752Z,23.25
2022-09-04T15:34:21.296Z,22.89
2022-09-04T15:39:37.933Z,22.95
2022-09-04T15:44:43.420Z,22.82
2022-09-04T15:50:01.151Z,22.61
2022-09-04T15:55:11.546Z,22.50
2022-09-04T16:00:15.884Z,22.30
2022-09-04T16:05:41.424Z,22.27
2022-09-04T16:11:04.413Z,22.04
2022-09-04T16:16:12.146Z,21.93
2022-09-04T16:21:50.598Z,21.87
2022-09-04T16:26:54.515Z,21.97
2022-09-04T16:31:58.517Z,21.87
2022-09-04T16:37:14.010Z,21.65
2022-09-04T16:42:22.641Z,21.48
2022-09-04T16:47:32.855Z,21.17
2022-09-04T16:52:35.502Z,21.00
2022-09-04T16:57:44.336Z,20.65
2022-09-04T17:03:10.081Z,20.39
2022-09-04T17:08:52.556Z,20.13
2022-09-04T17:14:10.669Z,19.88
2022-09-04T17:19:14.649Z,19.62
2022-09-04T17:28:56.994Z,19.43
2022-09-04T17:30:02.165Z,18.95
2022-09-04T17:40:33.033Z,18.68
2022-09-04T17:41:37.915Z,18.64
2022-09-04T17:46:32.502Z,18.57
2022-09-04T17:51:35.619Z,18.45
2022-09-04T17:56:54.373Z,18.18
2022-09-04T18:02:01.291Z,18.01
2022-09-04T18:07:58.898Z,17.88
2022-09-04T18:12:43.111Z,17.62
2022-09-04T18:17:51.010Z,17.66
2022-09-04T18:23:14.931Z,17.52
2022-09-04T18:28:27.234Z,17.35
2022-09-04T18:37:22.282Z,17.30
2022-09-04T18:39:27.531Z,17.20
2022-09-04T18:50:22.788Z,17.11
2022-09-04T18:51:04.424Z,17.05
2022-09-04T18:55:43.869Z,16.88
2022-09-04T19:00:48.761Z,16.85
2022-09-04T19:05:55.691Z,16.78
2022-09-04T19:11:09.412Z,16.70
2022-09-04T19:16:40.849Z,16.60
2022-09-04T19:21:58.227Z,16.58
2022-09-04T19:27:27.678Z,16.50
2022-09-04T19:32:41.857Z,16.37
2022-09-04T19:44:15.366Z,16.21
2022-09-04T19:46:18.861Z,16.25
2022-09-04T19:50:01.805Z,16.17
2022-09-04T19:54:41.692Z,16.09
2022-09-04T19:59:47.158Z,16.03
2022-09-04T20:04:55.544Z,15.91
2022-09-04T20:09:59.776Z,15.84
2022-09-04T20:15:13.922Z,15.92
2022-09-04T20:20:23.676Z,15.82
2022-09-04T20:25:57.739Z,15.79
2022-09-04T20:31:28.798Z,15.77
2022-09-04T20:36:48.833Z,15.63
2022-09-04T20:42:04.349Z,15.50
2022-09-04T20:52:25.318Z,15.39
2022-09-04T20:53:09.621Z,15.35
2022-09-04T21:03:11.773Z,15.25
2022-09-04T21:03:56.451Z,15.18
2022-09-04T21:09:14.907Z,15.08
2022-09-04T21:14:45.522Z,15.00
2022-09-04T21:20:13.072Z,14.92
2022-09-04T21:25:37.878Z,14.78
2022-09-04T21:30:59.731Z,14.79
2022-09-04T21:36:25.422Z,14.74
2022-09-04T21:41:47.244Z,14.75
2022-09-04T21:47:08.608Z,14.62
2022-09-04T21:52:41.955Z,14.55
2022-09-04T22:02:45.027Z,14.48
2022-09-04T22:03:34.887Z,14.39
2022-09-04T22:13:32.369Z,14.33
2022-09-04T22:14:12.592Z,14.29
2022-09-04T22:19:52.228Z,14.19
2022-09-04T22:25:16.228Z,14.07
2022-09-04T22:30:20.034Z,14.04
2022-09-04T22:35:40.848Z,14.04
2022-09-04T22:40:58.179Z,14.01
2022-09-04T22:46:43.084Z,14.06
2022-09-04T22:51:57.377Z,13.96
2022-09-04T22:57:10.833Z,13.87
2022-09-04T23:03:07.898Z,13.94
2022-09-04T23:13:42.929Z,13.84
2022-09-04T23:14:18.316Z,13.83
2022-09-04T23:26:38.133Z,13.82
2022-09-04T23:26:53.817Z,13.71
2022-09-04T23:31:12.518Z,13.76
2022-09-04T23:36:41.761Z,13.70
2022-09-04T23:41:55.972Z,13.58
2022-09-04T23:47:46.864Z,13.53
2022-09-04T23:53:07.343Z,13.52
2022-09-04T23:58:51.541Z,13.47
